createdAt,value
2019-05-23T00:02:36.644Z,98866.23
2019-05-23T00:05:55.869Z,98867.79
2019-05-23T00:08:44.724Z,98867.02
2019-05-23T00:11:31.269Z,98868.64
2019-05-23T00:14:08.490Z,98878.66
2019-05-23T00:16:42.578Z,98877.39
2019-05-23T00:19:14.356Z,98882.72
2019-05-23T00:21:45.501Z,98872.50
2019-05-23T00:24:15.748Z,98871.55
2019-05-23T00:26:46.282Z,98871.03
2019-05-23T00:29:17.752Z,98871.66
2019-05-23T00:32:03.059Z,98860.44
2019-05-23T00:34:35.022Z,98874.94
2019-05-23T00:37:07.037Z,98867.48
2019-05-23T00:39:37.921Z,98867.09
2019-05-23T00:42:10.231Z,98867.05
2019-05-23T00:44:41.102Z,98865.91
2019-05-23T00:47:13.721Z,98866.78
2019-05-23T00:49:44.323Z,98874.08
2019-05-23T00:52:15.274Z,98876.58
2019-05-23T00:54:45.558Z,98873.55
2019-05-23T00:57:16.238Z,98876.48
2019-05-23T00:59:47.973Z,98869.02
2019-05-23T01:02:19.812Z,98879.23
2019-05-23T01:04:51.475Z,98882.23
2019-05-23T01:07:22.629Z,98875.13
2019-05-23T01:09:52.859Z,98871.14
2019-05-23T01:12:25.119Z,98876.10
2019-05-23T01:14:56.073Z,98876.68
2019-05-23T01:17:28.982Z,98876.05
2019-05-23T01:20:01.171Z,98873.47
2019-05-23T01:22:31.380Z,98869.66
2019-05-23T01:25:02.336Z,98873.66
2019-05-23T01:27:32.565Z,98870.02
2019-05-23T01:30:05.280Z,98878.59
2019-05-23T01:32:49.940Z,98875.11
2019-05-23T01:35:22.790Z,98879.38
2019-05-23T01:37:53.557Z,98879.89
2019-05-23T01:40:23.773Z,98880.02
2019-05-23T01:42:55.549Z,98874.30
2019-05-23T01:45:27.552Z,98874.08
2019-05-23T01:47:58.996Z,98868.61
2019-05-23T01:50:30.500Z,98874.87
2019-05-23T01:53:01.655Z,98879.65
2019-05-23T01:55:32.576Z,98879.47
2019-05-23T01:58:03.336Z,98881.59
2019-05-23T02:00:34.790Z,98879.28
2019-05-23T02:03:05.332Z,98883.92
2019-05-23T02:05:37.284Z,98876.69
2019-05-23T02:08:10.661Z,98867.84
2019-05-23T02:10:41.418Z,98868.81
2019-05-23T02:13:12.550Z,98868.36
2019-05-23T02:15:44.005Z,98871.44
2019-05-23T02:19:38.037Z,98864.53
2019-05-23T02:22:08.608Z,98866.08
2019-05-23T02:24:39.239Z,98864.41
2019-05-23T02:27:10.661Z,98866.97
2019-05-23T02:29:41.984Z,98861.20
2019-05-23T02:32:12.867Z,98857.70
2019-05-23T02:34:44.245Z,98860.47
2019-05-23T02:37:45.742Z,98866.40
2019-05-23T02:40:25.667Z,98867.17
2019-05-23T02:42:59.813Z,98872.98
2019-05-23T02:45:43.152Z,98874.03
2019-05-23T02:48:20.099Z,98869.56
2019-05-23T02:50:55.884Z,98869.37
2019-05-23T02:53:30.713Z,98869.84
2019-05-23T02:56:05.608Z,98867.27
2019-05-23T02:59:03.185Z,98872.70
2019-05-23T03:02:02.413Z,98864.45
2019-05-23T03:04:34.710Z,98864.73
2019-05-23T03:07:06.573Z,98859.13
2019-05-23T03:09:38.779Z,98855.79
2019-05-23T03:12:11.055Z,98852.56
2019-05-23T03:14:42.864Z,98852.77
2019-05-23T03:17:17.892Z,98855.42
2019-05-23T03:19:59.594Z,98861.88
2019-05-23T03:22:48.825Z,98859.02
2019-05-23T03:26:03.873Z,98857.80
2019-05-23T03:28:40.366Z,98863.97
2019-05-23T03:31:30.723Z,98854.78
2019-05-23T03:33:49.757Z,98861.80
2019-05-23T03:36:20.493Z,98855.83
2019-05-23T03:38:53.265Z,98861.71
2019-05-23T03:41:23.673Z,98858.88
2019-05-23T03:43:54.276Z,98856.70
2019-05-23T03:46:27.100Z,98859.72
2019-05-23T03:48:58.383Z,98859.92
2019-05-23T03:51:29.004Z,98870.16
2019-05-23T03:54:01.834Z,98870.53
2019-05-23T03:56:33.586Z,98866.83
2019-05-23T03:59:06.428Z,98872.55
2019-05-23T04:01:48.057Z,98863.33
2019-05-23T04:04:09.920Z,98866.06
2019-05-23T04:06:41.307Z,98867.03
2019-05-23T04:09:11.860Z,98852.97
2019-05-23T04:11:42.568Z,98853.81
2019-05-23T04:14:13.805Z,98862.56
2019-05-23T04:16:44.038Z,98854.46
2019-05-23T04:19:14.480Z,98851.35
2019-05-23T04:21:45.591Z,98855.42
2019-05-23T04:24:16.743Z,98846.48
2019-05-23T04:26:47.800Z,98849.70
2019-05-23T04:29:18.231Z,98849.89
2019-05-23T04:32:06.103Z,98854.52
2019-05-23T04:34:21.058Z,98855.36
2019-05-23T04:36:51.906Z,98846.40
2019-05-23T04:39:22.136Z,98849.11
2019-05-23T04:41:52.517Z,98852.70
2019-05-23T04:44:22.767Z,98860.36
2019-05-23T04:46:54.518Z,98858.52
2019-05-23T04:49:25.255Z,98854.28
2019-05-23T04:51:56.157Z,98863.09
2019-05-23T04:54:26.590Z,98857.16
2019-05-23T04:56:57.732Z,98853.01
2019-05-23T04:59:27.987Z,98855.36
2019-05-23T05:01:58.967Z,98853.19
2019-05-23T05:04:30.123Z,98855.59
2019-05-23T05:07:00.752Z,98847.69
2019-05-23T05:09:32.421Z,98848.27
2019-05-23T05:12:04.271Z,98847.45
2019-05-23T05:14:34.620Z,98855.19
2019-05-23T05:17:07.182Z,98853.22
2019-05-23T05:19:37.476Z,98850.77
2019-05-23T05:22:07.740Z,98848.52
2019-05-23T05:24:40.233Z,98844.95
2019-05-23T05:27:11.025Z,98841.34
2019-05-23T05:29:41.302Z,98841.43
2019-05-23T05:32:11.710Z,98847.66
2019-05-23T05:34:42.575Z,98845.77
2019-05-23T05:37:13.172Z,98842.69
2019-05-23T05:39:43.516Z,98850.98
2019-05-23T05:42:14.636Z,98840.82
2019-05-23T05:44:45.595Z,98842.20
2019-05-23T05:47:15.842Z,98844.89
2019-05-23T05:49:46.804Z,98841.25
2019-05-23T05:52:18.257Z,98849.56
2019-05-23T05:54:48.836Z,98851.69
2019-05-23T05:57:19.124Z,98850.47
2019-05-23T05:59:49.402Z,98850.61
2019-05-23T06:02:20.301Z,98857.66
2019-05-23T06:04:50.883Z,98853.69
2019-05-23T06:07:27.653Z,98852.22
2019-05-23T06:09:59.190Z,98847.27
2019-05-23T06:12:30.333Z,98852.13
2019-05-23T06:15:00.622Z,98845.95
2019-05-23T06:17:33.104Z,98849.97
2019-05-23T06:20:03.472Z,98846.43
2019-05-23T06:22:34.385Z,98843.38
2019-05-23T06:25:06.180Z,98845.70
2019-05-23T06:27:36.621Z,98840.94
2019-05-23T06:30:09.390Z,98847.98
2019-05-23T06:32:39.978Z,98837.87
2019-05-23T06:35:10.408Z,98839.81
2019-05-23T06:37:40.676Z,98836.59
2019-05-23T06:40:12.531Z,98837.54
2019-05-23T06:42:42.780Z,98831.75
2019-05-23T06:45:13.642Z,98831.33
2019-05-23T06:47:44.553Z,98834.20
2019-05-23T06:50:17.590Z,98828.69
2019-05-23T06:52:48.224Z,98825.58
2019-05-23T06:55:18.641Z,98825.50
2019-05-23T06:57:48.970Z,98817.91
2019-05-23T07:00:22.130Z,98820.15
2019-05-23T07:02:52.324Z,98815.34
2019-05-23T07:05:26.234Z,98818.77
2019-05-23T07:07:57.574Z,98810.41
2019-05-23T07:10:28.858Z,98815.73
2019-05-23T07:12:59.355Z,98812.72
2019-05-23T07:15:30.341Z,98818.24
2019-05-23T07:18:01.959Z,98819.74
2019-05-23T07:20:32.362Z,98813.84
2019-05-23T07:23:03.037Z,98813.27
2019-05-23T07:25:33.593Z,98816.23
2019-05-23T07:28:03.978Z,98818.14
2019-05-23T07:30:34.940Z,98818.79
2019-05-23T07:33:05.722Z,98814.56
2019-05-23T07:35:36.334Z,98812.89
2019-05-23T07:38:07.225Z,98819.33
2019-05-23T07:40:37.562Z,98814.85
2019-05-23T07:43:08.417Z,98813.72
2019-05-23T07:45:44.268Z,98810.62
2019-05-23T07:48:15.188Z,98814.56
2019-05-23T07:50:45.795Z,98809.72
2019-05-23T07:53:21.907Z,98808.23
2019-05-23T07:55:52.975Z,98809.42
2019-05-23T07:58:23.625Z,98802.00
2019-05-23T08:00:58.077Z,98797.94
2019-05-23T08:03:31.008Z,98798.30
2019-05-23T08:06:01.847Z,98798.30
2019-05-23T08:08:32.879Z,98793.73
2019-05-23T08:11:03.543Z,98793.53
2019-05-23T08:13:33.948Z,98797.97
2019-05-23T08:16:04.921Z,98803.02
2019-05-23T08:18:35.258Z,98797.34
2019-05-23T08:21:05.797Z,98797.89
2019-05-23T08:23:36.475Z,98790.41
2019-05-23T08:26:07.392Z,98798.22
2019-05-23T08:28:56.307Z,98795.81
2019-05-23T08:31:10.359Z,98796.75
2019-05-23T08:33:40.697Z,98792.45
2019-05-23T08:36:11.181Z,98792.45
2019-05-23T08:38:42.819Z,98798.52
2019-05-23T08:41:14.095Z,98800.48
2019-05-23T08:43:44.552Z,98796.73
2019-05-23T08:46:14.971Z,98790.77
2019-05-23T08:48:45.750Z,98792.52
2019-05-23T08:51:16.965Z,98793.59
2019-05-23T08:53:47.430Z,98785.84
2019-05-23T08:56:19.720Z,98781.48
2019-05-23T08:58:50.801Z,98779.05
2019-05-23T09:01:21.319Z,98776.88
2019-05-23T09:03:51.851Z,98769.67
2019-05-23T09:06:22.135Z,98773.58
2019-05-23T09:08:53.624Z,98770.19
2019-05-23T09:11:24.543Z,98772.89
2019-05-23T09:13:55.235Z,98774.22
2019-05-23T09:16:25.452Z,98774.16
2019-05-23T09:18:55.642Z,98767.70
2019-05-23T09:21:25.986Z,98769.73
2019-05-23T09:23:56.282Z,98769.70
2019-05-23T09:26:27.267Z,98768.27
2019-05-23T09:28:58.366Z,98766.86
2019-05-23T09:31:29.333Z,98767.80
2019-05-23T09:33:59.585Z,98765.39
2019-05-23T09:36:29.923Z,98764.31
2019-05-23T09:39:00.279Z,98762.27
2019-05-23T09:41:30.636Z,98762.66
2019-05-23T09:44:01.050Z,98758.73
2019-05-23T09:46:31.288Z,98766.03
2019-05-23T09:49:01.553Z,98753.91
2019-05-23T09:51:31.837Z,98756.44
2019-05-23T09:54:02.130Z,98757.78
2019-05-23T09:56:32.940Z,98757.63
2019-05-23T09:59:03.658Z,98755.91
2019-05-23T10:01:34.576Z,98747.95
2019-05-23T10:04:05.540Z,98751.66
2019-05-23T10:06:35.904Z,98749.38
2019-05-23T10:09:08.402Z,98749.45
2019-05-23T10:11:38.648Z,98751.16
2019-05-23T10:14:12.721Z,98754.69
2019-05-23T10:16:43.074Z,98756.56
2019-05-23T10:19:13.753Z,98753.17
2019-05-23T10:21:44.078Z,98750.66
2019-05-23T10:24:14.670Z,98746.62
2019-05-23T10:26:44.925Z,98745.72
2019-05-23T10:29:15.998Z,98744.34
2019-05-23T10:31:46.264Z,98746.84
2019-05-23T10:34:16.756Z,98736.64
2019-05-23T10:36:47.102Z,98725.85
2019-05-23T10:39:19.929Z,98728.05
2019-05-23T10:41:50.166Z,98717.45
2019-05-23T10:44:20.541Z,98714.84
2019-05-23T10:46:51.182Z,98713.38
2019-05-23T10:49:21.715Z,98707.95
2019-05-23T10:51:52.368Z,98712.45
2019-05-23T10:54:22.751Z,98707.03
2019-05-23T10:56:53.535Z,98709.41
2019-05-23T10:59:24.587Z,98702.53
2019-05-23T11:01:55.613Z,98702.63
2019-05-23T11:04:25.909Z,98701.94
2019-05-23T11:06:57.357Z,98698.14
2019-05-23T11:09:37.146Z,98708.64
2019-05-23T11:12:00.067Z,98703.45
2019-05-23T11:14:31.042Z,98707.23
2019-05-23T11:17:01.485Z,98704.54
2019-05-23T11:19:31.823Z,98694.86
2019-05-23T11:22:02.196Z,98700.88
2019-05-23T11:24:32.763Z,98687.14
2019-05-23T11:27:03.529Z,98683.95
2019-05-23T11:29:34.132Z,98680.05
2019-05-23T11:32:06.149Z,98682.02
2019-05-23T11:34:37.006Z,98680.42
2019-05-23T11:37:07.210Z,98678.95
2019-05-23T11:39:42.163Z,98680.29
2019-05-23T11:42:10.270Z,98664.75
2019-05-23T11:44:40.595Z,98671.25
2019-05-23T11:47:11.068Z,98664.66
2019-05-23T11:49:42.337Z,98668.19
2019-05-23T11:52:13.356Z,98667.50
2019-05-23T11:54:44.568Z,98650.83
2019-05-23T11:57:15.489Z,98650.68
2019-05-23T11:59:45.725Z,98655.61
2019-05-23T12:02:31.014Z,98653.11
2019-05-23T12:05:02.916Z,98658.12
2019-05-23T12:07:35.153Z,98658.12
2019-05-23T12:10:07.532Z,98655.97
2019-05-23T12:12:37.820Z,98647.27
2019-05-23T12:15:13.800Z,98646.12
2019-05-23T12:17:44.036Z,98644.41
2019-05-23T12:20:15.097Z,98640.48
2019-05-23T12:22:45.466Z,98636.87
2019-05-23T12:25:23.085Z,98633.28
2019-05-23T12:27:49.265Z,98629.64
2019-05-23T12:30:22.321Z,98627.94
2019-05-23T12:32:52.595Z,98629.96
2019-05-23T12:35:22.825Z,98621.63
2019-05-23T12:37:53.010Z,98622.66
2019-05-23T12:40:23.609Z,98619.92
2019-05-23T12:42:53.907Z,98613.97
2019-05-23T12:45:24.219Z,98611.96
2019-05-23T12:47:59.350Z,98609.78
2019-05-23T12:50:34.222Z,98612.14
2019-05-23T12:53:04.868Z,98609.03
2019-05-23T12:55:35.144Z,98603.64
2019-05-23T12:58:05.826Z,98602.55
2019-05-23T13:00:51.570Z,98600.20
2019-05-23T13:03:22.320Z,98600.53
2019-05-23T13:05:52.631Z,98589.47
2019-05-23T13:08:23.054Z,98594.74
2019-05-23T13:10:53.289Z,98593.41
2019-05-23T13:13:24.260Z,98593.55
2019-05-23T13:15:55.185Z,98591.06
2019-05-23T13:18:26.408Z,98593.30
2019-05-23T13:20:59.468Z,98585.05
2019-05-23T13:23:28.769Z,98587.34
2019-05-23T13:25:59.041Z,98583.66
2019-05-23T13:28:29.411Z,98578.95
2019-05-23T13:31:00.001Z,98577.83
2019-05-23T13:33:30.422Z,98573.86
2019-05-23T13:36:00.782Z,98576.70
2019-05-23T13:38:31.582Z,98577.25
2019-05-23T13:41:02.132Z,98579.67
2019-05-23T13:43:32.765Z,98568.02
2019-05-23T13:46:02.982Z,98569.27
2019-05-23T13:48:33.337Z,98567.17
2019-05-23T13:51:03.649Z,98568.87
2019-05-23T13:53:33.995Z,98556.45
2019-05-23T13:56:04.493Z,98556.12
2019-05-23T13:58:34.986Z,98555.94
2019-05-23T14:01:09.297Z,98557.34
2019-05-23T14:03:37.800Z,98556.05
2019-05-23T14:06:08.590Z,98553.30
2019-05-23T14:08:38.918Z,98549.35
2019-05-23T14:11:09.203Z,98549.31
2019-05-23T14:13:39.578Z,98550.99
2019-05-23T14:16:09.931Z,98542.45
2019-05-23T14:18:40.704Z,98539.13
2019-05-23T14:21:11.028Z,98534.16
2019-05-23T14:23:41.994Z,98527.48
2019-05-23T14:26:13.774Z,98533.72
2019-05-23T14:28:44.353Z,98529.28
2019-05-23T14:31:16.549Z,98522.58
2019-05-23T14:34:14.676Z,98528.48
2019-05-23T14:37:02.928Z,98519.94
2019-05-23T14:39:37.131Z,98514.05
2019-05-23T14:42:23.812Z,98514.05
2019-05-23T14:44:54.195Z,98510.84
2019-05-23T14:47:44.901Z,98512.45
2019-05-23T14:50:28.362Z,98509.31
2019-05-23T14:52:59.068Z,98507.36
2019-05-23T14:55:29.894Z,98497.31
2019-05-23T14:58:00.527Z,98494.40
2019-05-23T15:00:31.258Z,98494.56
2019-05-23T15:03:01.640Z,98487.72
2019-05-23T15:05:32.324Z,98487.55
2019-05-23T15:08:02.635Z,98497.70
2019-05-23T15:10:33.485Z,98486.95
2019-05-23T15:13:04.256Z,98483.22
2019-05-23T15:15:34.703Z,98490.99
2019-05-23T15:18:05.233Z,98479.91
2019-05-23T15:20:35.614Z,98481.04
2019-05-23T15:23:06.014Z,98480.59
2019-05-23T15:25:36.274Z,98483.55
2019-05-23T15:28:07.384Z,98487.08
2019-05-23T15:30:37.664Z,98479.80
2019-05-23T15:33:07.945Z,98479.48
2019-05-23T15:35:38.317Z,98474.59
2019-05-23T15:38:08.698Z,98469.40
2019-05-23T15:40:38.944Z,98461.72
2019-05-23T15:43:10.305Z,98466.14
2019-05-23T15:45:40.722Z,98471.55
2019-05-23T15:48:10.933Z,98466.38
2019-05-23T15:50:49.158Z,98461.90
2019-05-23T15:53:37.409Z,98458.60
2019-05-23T15:56:26.953Z,98462.37
2019-05-23T15:59:11.850Z,98457.50
2019-05-23T16:01:51.771Z,98457.20
2019-05-23T16:04:22.099Z,98452.33
2019-05-23T16:06:52.605Z,98452.20
2019-05-23T16:09:30.178Z,98456.41
2019-05-23T16:11:55.613Z,98445.81
2019-05-23T16:14:26.778Z,98454.87
2019-05-23T16:16:57.338Z,98441.25
2019-05-23T16:19:27.713Z,98442.75
2019-05-23T16:21:58.389Z,98437.89
2019-05-23T16:24:28.841Z,98430.89
2019-05-23T16:26:59.062Z,98433.59
2019-05-23T16:29:30.453Z,98414.73
2019-05-23T16:32:00.684Z,98424.01
2019-05-23T16:34:30.993Z,98423.29
2019-05-23T16:37:01.187Z,98430.57
2019-05-23T16:39:45.832Z,98420.56
2019-05-23T16:42:05.655Z,98418.41
2019-05-23T16:44:36.887Z,98419.11
2019-05-23T16:47:07.274Z,98417.36
2019-05-23T16:49:37.877Z,98421.83
2019-05-23T16:52:08.634Z,98420.52
2019-05-23T16:54:42.744Z,98404.19
2019-05-23T16:57:38.652Z,98409.35
2019-05-23T17:00:26.538Z,98405.28
2019-05-23T17:03:11.903Z,98409.47
2019-05-23T17:05:52.142Z,98401.95
2019-05-23T17:08:41.442Z,98394.88
2019-05-23T17:11:29.804Z,98394.64
2019-05-23T17:14:08.278Z,98395.41
2019-05-23T17:17:05.221Z,98386.75
2019-05-23T17:19:41.677Z,98391.99
2019-05-23T17:22:26.558Z,98396.41
2019-05-23T17:25:21.919Z,98395.22
2019-05-23T17:28:06.146Z,98395.47
2019-05-23T17:30:49.926Z,98396.45
2019-05-23T17:33:21.320Z,98397.65
2019-05-23T17:35:51.530Z,98399.36
2019-05-23T17:38:22.437Z,98388.08
2019-05-23T17:40:52.692Z,98394.09
2019-05-23T17:43:23.263Z,98383.44
2019-05-23T17:45:53.636Z,98386.34
2019-05-23T17:48:23.908Z,98377.31
2019-05-23T17:50:54.113Z,98380.68
2019-05-23T17:53:24.461Z,98378.55
2019-05-23T17:55:54.938Z,98381.19
2019-05-23T17:58:25.304Z,98388.25
2019-05-23T18:00:56.318Z,98379.09
2019-05-23T18:03:26.606Z,98379.73
2019-05-23T18:05:57.956Z,98374.17
2019-05-23T18:08:29.645Z,98375.91
2019-05-23T18:11:00.921Z,98370.61
2019-05-23T18:13:31.267Z,98373.95
2019-05-23T18:16:02.237Z,98373.53
2019-05-23T18:18:33.232Z,98366.79
2019-05-23T18:21:04.812Z,98370.83
2019-05-23T18:23:36.703Z,98378.81
2019-05-23T18:26:07.979Z,98384.28
2019-05-23T18:28:39.245Z,98386.67
2019-05-23T18:31:16.650Z,98386.83
2019-05-23T18:33:47.216Z,98381.66
2019-05-23T18:36:17.433Z,98390.53
2019-05-23T18:38:48.773Z,98398.38
2019-05-23T18:41:19.605Z,98401.79
2019-05-23T18:43:50.748Z,98399.97
2019-05-23T18:46:27.349Z,98400.69
2019-05-23T18:48:58.088Z,98396.84
2019-05-23T18:51:28.894Z,98401.36
2019-05-23T18:54:00.798Z,98404.90
2019-05-23T18:56:31.100Z,98401.13
2019-05-23T18:59:03.040Z,98401.16
2019-05-23T19:01:34.157Z,98404.27
2019-05-23T19:04:05.325Z,98408.58
2019-05-23T19:06:36.137Z,98408.09
2019-05-23T19:09:11.773Z,98408.79
2019-05-23T19:11:42.442Z,98409.95
2019-05-23T19:14:12.713Z,98408.73
2019-05-23T19:16:43.710Z,98415.83
2019-05-23T19:19:14.731Z,98416.45
2019-05-23T19:21:46.837Z,98412.12
2019-05-23T19:24:17.153Z,98410.77
2019-05-23T19:26:48.586Z,98418.34
2019-05-23T19:29:19.348Z,98407.07
2019-05-23T19:31:49.575Z,98416.11
2019-05-23T19:34:20.272Z,98420.52
2019-05-23T19:36:50.555Z,98420.38
2019-05-23T19:39:20.920Z,98416.39
2019-05-23T19:41:51.298Z,98422.22
2019-05-23T19:44:21.599Z,98416.30
2019-05-23T19:46:51.964Z,98423.80
2019-05-23T19:49:22.649Z,98423.06
2019-05-23T19:51:52.853Z,98426.70
2019-05-23T19:54:23.738Z,98419.78
2019-05-23T19:56:54.115Z,98423.17
2019-05-23T19:59:24.488Z,98419.50
2019-05-23T20:02:11.027Z,98422.07
2019-05-23T20:04:44.366Z,98419.72
2019-05-23T20:07:15.780Z,98417.36
2019-05-23T20:09:46.393Z,98413.00
2019-05-23T20:12:16.646Z,98415.37
2019-05-23T20:14:46.920Z,98421.47
2019-05-23T20:17:17.528Z,98413.72
2019-05-23T20:19:50.252Z,98413.55
2019-05-23T20:22:19.804Z,98416.23
2019-05-23T20:24:50.140Z,98415.58
2019-05-23T20:27:20.443Z,98417.58
2019-05-23T20:29:50.796Z,98417.24
2019-05-23T20:32:21.498Z,98425.15
2019-05-23T20:34:51.791Z,98420.42
2019-05-23T20:37:22.740Z,98421.24
2019-05-23T20:39:53.074Z,98426.91
2019-05-23T20:42:23.338Z,98422.32
2019-05-23T20:44:53.581Z,98427.99
2019-05-23T20:47:24.892Z,98432.84
2019-05-23T20:49:55.145Z,98435.30
2019-05-23T20:52:25.428Z,98438.75
2019-05-23T20:54:55.710Z,98434.82
2019-05-23T20:57:25.976Z,98435.61
2019-05-23T20:59:56.438Z,98437.90
2019-05-23T21:02:26.817Z,98439.20
2019-05-23T21:04:57.240Z,98442.36
2019-05-23T21:07:27.799Z,98439.66
2019-05-23T21:09:58.071Z,98441.80
2019-05-23T21:12:30.318Z,98447.18
2019-05-23T21:15:00.233Z,98439.61
2019-05-23T21:17:30.640Z,98439.28
2019-05-23T21:20:00.896Z,98444.77
2019-05-23T21:22:31.478Z,98449.10
2019-05-23T21:25:01.820Z,98453.94
2019-05-23T21:27:32.128Z,98451.56
2019-05-23T21:30:02.308Z,98450.80
2019-05-23T21:32:32.692Z,98456.49
2019-05-23T21:35:02.938Z,98457.41
2019-05-23T21:37:33.227Z,98455.62
2019-05-23T21:40:03.661Z,98455.18
2019-05-23T21:42:47.190Z,98460.14
2019-05-23T21:45:06.738Z,98460.73
2019-05-23T21:47:36.990Z,98461.74
2019-05-23T21:50:07.458Z,98458.48
2019-05-23T21:52:37.734Z,98458.09
2019-05-23T21:55:08.098Z,98461.91
2019-05-23T21:57:38.449Z,98461.20
2019-05-23T22:00:12.019Z,98464.23
2019-05-23T22:02:44.117Z,98464.59
2019-05-23T22:05:16.929Z,98469.20
2019-05-23T22:07:47.665Z,98466.80
2019-05-23T22:10:18.413Z,98470.70
2019-05-23T22:13:03.305Z,98473.35
2019-05-23T22:15:36.319Z,98467.20
2019-05-23T22:18:07.612Z,98468.11
2019-05-23T22:20:38.243Z,98468.75
2019-05-23T22:23:08.571Z,98472.98
2019-05-23T22:25:39.853Z,98467.75
2019-05-23T22:28:10.087Z,98464.31
2019-05-23T22:30:40.296Z,98463.98
2019-05-23T22:33:10.687Z,98461.56
2019-05-23T22:35:40.964Z,98460.92
2019-05-23T22:38:11.241Z,98461.23
2019-05-23T22:40:41.707Z,98454.00
2019-05-23T22:43:20.810Z,98461.33
2019-05-23T22:45:43.902Z,98457.94
2019-05-23T22:48:14.481Z,98459.02
2019-05-23T22:50:44.757Z,98451.63
2019-05-23T22:53:15.941Z,98448.30
2019-05-23T22:55:46.584Z,98443.53
2019-05-23T22:58:16.802Z,98443.36
2019-05-23T23:00:48.943Z,98447.72
2019-05-23T23:03:19.372Z,98444.56
2019-05-23T23:05:49.681Z,98449.73
2019-05-23T23:08:20.755Z,98448.09
2019-05-23T23:10:52.105Z,98454.71
2019-05-23T23:13:37.699Z,98450.75
2019-05-23T23:15:55.289Z,98454.91
2019-05-23T23:18:25.579Z,98458.47
2019-05-23T23:20:55.870Z,98459.57
2019-05-23T23:23:26.126Z,98457.52
2019-05-23T23:25:56.721Z,98453.63
2019-05-23T23:28:27.087Z,98455.91
2019-05-23T23:30:57.900Z,98449.28
2019-05-23T23:33:28.181Z,98446.66
2019-05-23T23:35:58.495Z,98447.92
2019-05-23T23:38:29.006Z,98447.59
2019-05-23T23:40:59.243Z,98442.81
2019-05-23T23:43:29.780Z,98452.00
2019-05-23T23:46:17.821Z,98448.95
2019-05-23T23:49:06.299Z,98450.38
2019-05-23T23:51:54.427Z,98449.67
2019-05-23T23:54:43.313Z,98455.03
2019-05-23T23:57:31.386Z,98455.70
